createdAt,value
2023-02-16T05:27:43.921Z,-1.12
2023-02-16T05:32:45.570Z,-1.09
2023-02-16T05:37:47.244Z,-1.04
2023-02-16T05:42:53.419Z,-1.07
2023-02-16T05:47:55.164Z,-1.25
2023-02-16T05:52:56.943Z,-0.91
2023-02-16T05:57:58.743Z,-0.80
2023-02-16T06:03:00.721Z,-0.91
2023-02-16T06:08:02.453Z,-0.79
2023-02-16T06:13:04.078Z,-0.84
2023-02-16T06:18:05.795Z,-0.99
2023-02-16T06:23:09.870Z,-0.77
2023-02-16T06:28:11.775Z,-0.77
2023-02-16T06:33:13.427Z,-0.87
2023-02-16T06:38:15.232Z,-0.80
2023-02-16T06:43:16.875Z,-0.74
2023-02-16T06:48:18.525Z,-0.95
2023-02-16T06:53:20.644Z,-0.77
2023-02-16T06:58:22.299Z,-0.80
2023-02-16T07:03:25.001Z,-0.74
2023-02-16T07:08:26.909Z,-0.78
2023-02-16T07:13:28.551Z,-0.77
2023-02-16T07:18:30.373Z,-0.78
2023-02-16T07:23:33.132Z,-0.65
2023-02-16T07:28:36.005Z,-0.59
2023-02-16T07:33:38.103Z,-0.57
2023-02-16T07:38:42.005Z,-1.01
2023-02-16T07:43:44.246Z,-0.73
2023-02-16T07:48:50.211Z,-0.60
2023-02-16T07:53:52.340Z,-0.67
2023-02-16T07:58:59.273Z,-0.49
2023-02-16T08:04:01.176Z,-0.44
2023-02-16T08:09:03.624Z,-0.68
2023-02-16T08:14:05.330Z,-0.63
2023-02-16T08:19:07.298Z,-0.64
2023-02-16T08:24:13.203Z,-0.48
2023-02-16T08:29:14.954Z,-0.55
2023-02-16T08:34:18.897Z,-0.32
2023-02-16T08:39:23.150Z,-0.44
2023-02-16T08:44:26.279Z,-0.09
2023-02-16T08:49:28.441Z,-0.41
2023-02-16T08:54:33.457Z,-0.31
2023-02-16T08:59:35.475Z,-0.29
2023-02-16T09:04:37.381Z,-0.32
2023-02-16T09:09:41.080Z,-0.20
2023-02-16T09:14:44.314Z,-0.18
2023-02-16T09:19:46.048Z,-0.37
2023-02-16T09:24:47.934Z,-0.29
2023-02-16T09:29:50.063Z,-0.33
2023-02-16T09:34:51.746Z,-0.13
2023-02-16T09:39:53.477Z,0.14
2023-02-16T09:45:14.092Z,-0.18
2023-02-16T09:50:52.086Z,-0.13
2023-02-16T09:56:04.980Z,0.02
2023-02-16T10:01:42.792Z,0.39
2023-02-16T10:06:58.490Z,0.14
2023-02-16T10:12:11.145Z,0.29
2023-02-16T10:17:28.316Z,0.29
2023-02-16T10:22:36.894Z,0.27
2023-02-16T10:27:43.249Z,0.56
2023-02-16T10:32:59.604Z,0.36
2023-02-16T10:38:26.245Z,0.63
2023-02-16T10:44:02.836Z,0.31
2023-02-16T10:49:04.583Z,0.32
2023-02-16T10:54:28.354Z,0.77
2023-02-16T10:59:43.323Z,0.62
2023-02-16T11:04:48.805Z,0.70
2023-02-16T11:09:55.872Z,0.80
2023-02-16T11:15:28.719Z,1.08
2023-02-16T11:20:32.001Z,0.78
2023-02-16T11:25:33.879Z,0.56
2023-02-16T11:30:39.052Z,1.06
2023-02-16T11:35:43.574Z,1.30
2023-02-16T11:40:52.922Z,1.16
2023-02-16T11:46:01.032Z,1.30
2023-02-16T11:51:06.411Z,1.55
2023-02-16T11:56:24.965Z,1.85
2023-02-16T12:01:59.111Z,1.68
2023-02-16T12:07:08.473Z,1.77
2023-02-16T12:12:17.872Z,2.07
2023-02-16T12:17:41.208Z,2.10
2023-02-16T12:22:59.483Z,2.27
2023-02-16T12:28:28.379Z,2.13
2023-02-16T12:33:56.520Z,2.19
2023-02-16T12:39:07.134Z,2.36
2023-02-16T12:44:17.514Z,2.48
2023-02-16T12:49:47.678Z,2.72
2023-02-16T12:54:55.596Z,2.58
2023-02-16T13:00:15.700Z,2.46
2023-02-16T13:05:17.582Z,2.46
2023-02-16T13:10:38.449Z,2.65
2023-02-16T13:15:50.792Z,3.30
2023-02-16T13:21:03.330Z,3.16
2023-02-16T13:26:05.770Z,3.00
2023-02-16T13:31:49.596Z,2.87
2023-02-16T13:37:24.572Z,3.02
2023-02-16T13:42:44.455Z,3.33
2023-02-16T13:47:46.408Z,3.27
2023-02-16T13:52:49.512Z,3.54
2023-02-16T13:58:11.122Z,3.43
2023-02-16T14:03:32.702Z,3.53
2023-02-16T14:08:34.735Z,3.55
2023-02-16T14:13:39.574Z,3.77
2023-02-16T14:19:22.574Z,4.16
2023-02-16T14:24:34.472Z,4.10
2023-02-16T14:29:53.013Z,3.82
2023-02-16T14:35:03.777Z,3.68
2023-02-16T14:40:17.483Z,3.82
2023-02-16T14:45:42.100Z,3.64
2023-02-16T14:51:04.693Z,3.76
2023-02-16T14:56:33.461Z,3.92
2023-02-16T15:01:46.072Z,3.99
2023-02-16T15:06:48.432Z,3.82
2023-02-16T15:12:11.739Z,3.81
2023-02-16T15:17:30.366Z,3.75
2023-02-16T15:22:32.461Z,3.80
2023-02-16T15:27:35.013Z,3.60
2023-02-16T15:32:37.226Z,3.58
2023-02-16T15:37:40.621Z,3.78
2023-02-16T15:42:45.430Z,3.65
2023-02-16T15:47:47.456Z,3.46
2023-02-16T15:52:49.453Z,3.95
2023-02-16T15:57:51.396Z,3.53
2023-02-16T16:02:58.585Z,3.21
2023-02-16T16:08:02.737Z,3.01
2023-02-16T16:13:07.632Z,2.68
2023-02-16T16:18:32.161Z,2.64
2023-02-16T16:23:35.365Z,2.62
2023-02-16T16:28:38.136Z,2.47
2023-02-16T16:34:00.707Z,2.33
2023-02-16T16:39:19.592Z,2.10
2023-02-16T16:44:38.487Z,2.08
2023-02-16T16:50:01.135Z,1.96
2023-02-16T16:55:25.569Z,1.79
2023-02-16T17:00:36.811Z,1.65
2023-02-16T17:05:40.215Z,1.58
2023-02-16T17:10:43.536Z,1.50
2023-02-16T17:15:57.388Z,1.41
2023-02-16T17:20:59.664Z,1.38
2023-02-16T17:26:01.436Z,1.15
2023-02-16T17:31:08.441Z,1.18
2023-02-16T17:36:14.626Z,0.95
2023-02-16T17:41:28.106Z,0.57
2023-02-16T17:46:32.090Z,0.84
2023-02-16T17:51:36.392Z,0.84
2023-02-16T17:56:41.761Z,0.96
2023-02-16T18:01:45.011Z,0.86
2023-02-16T18:06:46.702Z,0.91
2023-02-16T18:11:48.399Z,0.86
2023-02-16T18:16:53.394Z,0.73
2023-02-16T18:21:55.251Z,0.73
2023-02-16T18:26:56.979Z,0.66
2023-02-16T18:31:58.780Z,0.46
2023-02-16T18:37:01.078Z,0.59
2023-02-16T18:42:02.879Z,0.58
2023-02-16T18:47:04.633Z,-0.02
2023-02-16T18:52:06.388Z,0.17
2023-02-16T18:57:08.201Z,0.41
2023-02-16T19:02:12.028Z,-0.09
2023-02-16T19:07:13.841Z,0.13
2023-02-16T19:12:15.568Z,0.45
2023-02-16T19:17:17.549Z,0.37
2023-02-16T19:22:19.286Z,0.20
2023-02-16T19:27:20.954Z,-0.11
2023-02-16T19:32:22.718Z,-0.13
2023-02-16T19:37:24.629Z,0.09
2023-02-16T19:42:26.524Z,0.17
2023-02-16T19:47:28.515Z,0.25
2023-02-16T19:52:30.407Z,0.24
2023-02-16T19:57:32.113Z,0.07
2023-02-16T20:02:33.781Z,0.29
2023-02-16T20:07:36.476Z,0.32
2023-02-16T20:12:38.201Z,0.11
2023-02-16T20:17:39.893Z,0.30
2023-02-16T20:22:41.779Z,0.42
2023-02-16T20:27:43.569Z,0.31
2023-02-16T20:32:48.916Z,0.40
2023-02-16T20:37:50.644Z,0.45
2023-02-16T20:42:52.361Z,0.32
2023-02-16T20:47:54.587Z,0.56
2023-02-16T20:52:56.254Z,0.37
2023-02-16T20:58:01.621Z,0.37
2023-02-16T21:03:03.279Z,0.37
2023-02-16T21:08:05.194Z,0.38
2023-02-16T21:13:07.137Z,0.30
2023-02-16T21:18:10.558Z,0.38
2023-02-16T21:23:12.240Z,0.48
2023-02-16T21:28:14.236Z,0.39
2023-02-16T21:33:15.990Z,0.23
2023-02-16T21:38:17.840Z,0.43
